createdAt,value
2018-07-08T00:01:35.897Z,2.30
2018-07-08T00:04:07.724Z,2.87
2018-07-08T00:06:36.293Z,2.07
2018-07-08T00:09:05.908Z,2.40
2018-07-08T00:11:34.529Z,2.73
2018-07-08T00:14:05.053Z,2.50
2018-07-08T00:16:33.587Z,3.03
2018-07-08T00:19:02.163Z,2.10
2018-07-08T00:21:30.690Z,3.00
2018-07-08T00:23:59.171Z,3.00
2018-07-08T00:26:27.692Z,2.70
2018-07-08T00:28:56.214Z,2.60
2018-07-08T00:31:24.708Z,2.63
2018-07-08T00:33:53.222Z,2.67
2018-07-08T00:36:21.798Z,2.67
2018-07-08T00:38:50.330Z,3.67
2018-07-08T00:41:18.865Z,2.87
2018-07-08T00:43:47.343Z,3.00
2018-07-08T00:46:15.876Z,2.87
2018-07-08T00:48:44.415Z,2.80
2018-07-08T00:51:12.913Z,2.97
2018-07-08T00:53:41.677Z,2.50
2018-07-08T00:56:10.203Z,2.40
2018-07-08T00:58:40.252Z,2.03
2018-07-08T01:01:08.860Z,3.20
2018-07-08T01:03:37.421Z,2.20
2018-07-08T01:06:06.798Z,2.47
2018-07-08T01:08:35.362Z,2.73
2018-07-08T01:11:03.922Z,2.77
2018-07-08T01:13:32.426Z,2.67
2018-07-08T01:16:00.933Z,2.53
2018-07-08T01:18:29.452Z,2.90
2018-07-08T01:20:57.959Z,2.80
2018-07-08T01:23:26.466Z,2.30
2018-07-08T01:26:05.702Z,2.57
2018-07-08T01:28:34.171Z,2.60
2018-07-08T01:31:02.681Z,2.53
2018-07-08T01:33:32.222Z,2.37
2018-07-08T01:36:01.217Z,3.00
2018-07-08T01:38:29.721Z,2.53
2018-07-08T01:40:58.479Z,2.10
2018-07-08T01:43:27.352Z,2.37
2018-07-08T01:45:55.844Z,3.27
2018-07-08T01:48:24.398Z,2.90
2018-07-08T01:50:52.905Z,3.17
2018-07-08T01:53:21.462Z,3.30
2018-07-08T01:55:50.075Z,3.47
2018-07-08T01:58:18.577Z,3.40
2018-07-08T02:00:47.401Z,3.20
2018-07-08T02:03:16.325Z,2.50
2018-07-08T02:05:44.830Z,2.47
2018-07-08T02:08:13.322Z,3.40
2018-07-08T02:10:41.945Z,3.50
2018-07-08T02:13:10.468Z,3.07
2018-07-08T02:15:38.944Z,3.57
2018-07-08T02:18:08.746Z,3.90
2018-07-08T02:20:37.288Z,2.67
2018-07-08T02:23:05.890Z,3.63
2018-07-08T02:25:34.391Z,3.43
2018-07-08T02:28:03.846Z,3.43
2018-07-08T02:30:32.392Z,2.90
2018-07-08T02:33:00.968Z,3.50
2018-07-08T02:35:29.151Z,4.20
2018-07-08T02:37:58.144Z,3.10
2018-07-08T02:40:27.279Z,4.70
2018-07-08T02:42:55.776Z,4.03
2018-07-08T02:45:25.112Z,4.15
2018-07-08T02:47:53.728Z,3.90
2018-07-08T02:50:22.280Z,4.00
2018-07-08T02:52:50.782Z,4.50
2018-07-08T02:55:19.277Z,3.50
2018-07-08T02:57:48.028Z,4.10
2018-07-08T03:00:16.536Z,4.10
2018-07-08T03:02:45.037Z,4.20
2018-07-08T03:05:13.544Z,3.83
2018-07-08T03:07:42.063Z,4.97
2018-07-08T03:10:10.573Z,4.37
2018-07-08T03:12:39.031Z,3.83
2018-07-08T03:15:08.430Z,4.30
2018-07-08T03:17:36.979Z,4.80
2018-07-08T03:20:05.516Z,5.47
2018-07-08T03:22:33.983Z,5.27
2018-07-08T03:25:02.505Z,5.03
2018-07-08T03:27:31.084Z,6.05
2018-07-08T03:29:59.592Z,4.57
2018-07-08T03:32:28.107Z,6.17
2018-07-08T03:34:56.592Z,5.55
2018-07-08T03:37:25.098Z,5.75
2018-07-08T03:39:53.708Z,5.97
2018-07-08T03:42:22.192Z,5.67
2018-07-08T03:44:50.658Z,5.60
2018-07-08T03:47:19.174Z,8.10
2018-07-08T03:49:47.682Z,6.20
2018-07-08T03:52:16.153Z,5.70
2018-07-08T03:54:44.666Z,5.30
2018-07-08T03:57:13.219Z,5.40
2018-07-08T03:59:41.696Z,5.40
2018-07-08T04:02:10.192Z,6.03
2018-07-08T04:04:38.928Z,6.35
2018-07-08T04:07:07.408Z,5.92
2018-07-08T04:09:35.886Z,6.40
2018-07-08T04:12:05.044Z,5.90
2018-07-08T04:14:33.515Z,6.73
2018-07-08T04:17:02.070Z,6.17
2018-07-08T04:19:30.564Z,5.90
2018-07-08T04:21:59.060Z,5.80
2018-07-08T04:24:27.571Z,5.50
2018-07-08T04:26:56.077Z,5.77
2018-07-08T04:29:24.590Z,6.03
2018-07-08T04:31:53.073Z,6.10
2018-07-08T04:34:21.550Z,5.77
2018-07-08T04:36:50.067Z,6.07
2018-07-08T04:39:18.539Z,5.67
2018-07-08T04:41:47.097Z,6.03
2018-07-08T04:44:15.657Z,6.57
2018-07-08T04:46:44.201Z,6.10
2018-07-08T04:49:12.700Z,6.20
2018-07-08T04:51:41.211Z,5.13
2018-07-08T04:54:09.720Z,6.80
2018-07-08T04:56:38.240Z,5.83
2018-07-08T04:59:06.791Z,5.20
2018-07-08T05:01:35.303Z,5.70
2018-07-08T05:04:03.822Z,5.83
2018-07-08T05:06:32.460Z,6.37
2018-07-08T05:09:00.924Z,5.50
2018-07-08T05:11:29.431Z,5.83
2018-07-08T05:13:57.893Z,6.37
2018-07-08T05:16:26.448Z,7.20
2018-07-08T05:18:54.958Z,5.50
2018-07-08T05:21:23.500Z,6.57
2018-07-08T05:23:52.022Z,7.93
2018-07-08T05:26:20.532Z,6.87
2018-07-08T05:28:48.999Z,6.00
2018-07-08T05:31:17.528Z,7.30
2018-07-08T05:33:46.087Z,6.33
2018-07-08T05:36:14.559Z,5.87
2018-07-08T05:38:43.071Z,6.43
2018-07-08T05:41:11.555Z,6.60
2018-07-08T05:43:40.089Z,5.83
2018-07-08T05:46:08.602Z,6.30
2018-07-08T05:48:37.217Z,7.43
2018-07-08T05:51:05.769Z,6.00
2018-07-08T05:53:34.923Z,5.30
2018-07-08T05:56:03.434Z,5.83
2018-07-08T05:58:31.927Z,6.13
2018-07-08T06:01:00.448Z,6.10
2018-07-08T06:03:28.929Z,5.23
2018-07-08T06:12:44.099Z,5.30
2018-07-08T06:15:12.630Z,5.10
2018-07-08T06:17:41.135Z,4.97
2018-07-08T06:20:11.415Z,5.53
2018-07-08T06:22:40.130Z,5.23
2018-07-08T06:25:08.812Z,4.70
2018-07-08T06:27:37.362Z,5.30
2018-07-08T06:30:06.249Z,4.07
2018-07-08T06:32:34.757Z,4.40
2018-07-08T06:35:03.298Z,4.17
2018-07-08T06:37:31.821Z,3.87
2018-07-08T06:40:00.373Z,3.53
2018-07-08T06:42:28.942Z,2.83
2018-07-08T06:44:58.304Z,3.50
2018-07-08T06:47:26.811Z,3.87
2018-07-08T06:49:55.364Z,3.50
2018-07-08T06:52:23.855Z,2.97
2018-07-08T06:54:52.386Z,3.17
2018-07-08T06:57:20.944Z,2.30
2018-07-08T06:59:49.609Z,3.00
2018-07-08T07:02:18.107Z,2.97
2018-07-08T07:04:46.690Z,2.50
2018-07-08T07:07:15.224Z,2.60
2018-07-08T07:09:43.746Z,2.03
2018-07-08T07:12:12.332Z,2.43
2018-07-08T07:14:40.885Z,1.90
2018-07-08T07:17:09.408Z,1.67
2018-07-08T07:19:37.944Z,2.07
2018-07-08T07:22:06.599Z,1.23
2018-07-08T07:24:35.110Z,2.30
2018-07-08T07:27:03.643Z,1.80
2018-07-08T07:29:32.154Z,2.30
2018-07-08T07:32:00.669Z,1.70
2018-07-08T07:34:29.217Z,1.30
2018-07-08T07:36:57.812Z,2.00
2018-07-08T07:39:26.328Z,1.87
2018-07-08T07:41:54.931Z,0.83
2018-07-08T07:44:23.515Z,1.37
2018-07-08T07:46:52.099Z,1.37
2018-07-08T07:49:20.665Z,1.40
2018-07-08T07:51:49.209Z,1.33
2018-07-08T07:54:17.747Z,1.07
2018-07-08T07:56:46.346Z,1.20
2018-07-08T07:59:15.365Z,1.03
2018-07-08T08:01:43.876Z,1.20
2018-07-08T08:04:12.448Z,1.07
2018-07-08T08:06:40.977Z,2.30
2018-07-08T08:09:09.532Z,1.03
2018-07-08T08:11:38.826Z,1.10
2018-07-08T08:14:07.405Z,1.90
2018-07-08T08:16:35.986Z,1.23
2018-07-08T08:19:04.226Z,0.97
2018-07-08T08:21:32.797Z,0.90
2018-07-08T08:24:01.340Z,1.10
2018-07-08T08:26:30.245Z,0.90
2018-07-08T08:28:58.850Z,1.03
2018-07-08T08:31:27.316Z,1.10
2018-07-08T08:35:19.924Z,1.13
2018-07-08T08:37:52.560Z,0.80
2018-07-08T08:40:22.479Z,1.20
2018-07-08T08:42:51.495Z,1.10
2018-07-08T08:45:21.072Z,0.77
2018-07-08T08:47:51.197Z,1.30
2018-07-08T08:50:19.700Z,0.93
2018-07-08T08:52:48.188Z,1.20
2018-07-08T08:55:16.752Z,1.27
2018-07-08T08:57:45.201Z,1.67
2018-07-08T09:00:16.478Z,1.40
2018-07-08T09:02:45.041Z,1.43
2018-07-08T09:05:13.523Z,1.40
2018-07-08T09:07:42.054Z,1.80
2018-07-08T09:10:10.617Z,2.67
2018-07-08T09:12:39.159Z,1.90
2018-07-08T09:15:08.198Z,3.60
2018-07-08T09:17:36.716Z,2.10
2018-07-08T09:20:05.390Z,2.37
2018-07-08T09:22:33.878Z,1.80
2018-07-08T09:25:02.374Z,2.33
2018-07-08T09:27:30.991Z,2.00
2018-07-08T09:29:59.449Z,1.70
2018-07-08T09:32:29.000Z,2.90
2018-07-08T09:34:57.470Z,3.23
2018-07-08T09:37:26.006Z,3.33
2018-07-08T09:39:54.548Z,3.10
2018-07-08T09:42:23.040Z,3.30
2018-07-08T09:44:51.531Z,3.13
2018-07-08T09:47:20.063Z,3.37
2018-07-08T09:49:48.575Z,3.50
2018-07-08T09:52:17.028Z,3.87
2018-07-08T09:54:45.579Z,2.90
2018-07-08T09:57:14.192Z,3.37
2018-07-08T09:59:42.676Z,4.17
2018-07-08T10:02:11.176Z,5.07
2018-07-08T10:04:39.740Z,3.40
2018-07-08T10:07:08.263Z,4.07
2018-07-08T10:09:36.770Z,5.50
2018-07-08T10:12:05.232Z,3.90
2018-07-08T10:14:33.720Z,3.67
2018-07-08T10:17:02.290Z,3.33
2018-07-08T10:19:30.809Z,3.60
2018-07-08T10:21:59.235Z,4.43
2018-07-08T10:24:27.756Z,3.97
2018-07-08T10:27:07.131Z,4.77
2018-07-08T10:29:35.646Z,3.72
2018-07-08T10:32:04.171Z,4.30
2018-07-08T10:34:32.959Z,4.90
2018-07-08T10:37:01.460Z,4.67
2018-07-08T10:39:29.950Z,4.40
2018-07-08T10:41:58.472Z,3.47
2018-07-08T10:44:26.941Z,3.30
2018-07-08T10:46:55.534Z,4.57
2018-07-08T10:49:25.160Z,3.70
2018-07-08T10:51:53.665Z,5.60
2018-07-08T10:54:22.183Z,4.03
2018-07-08T10:56:50.684Z,3.90
2018-07-08T10:59:19.400Z,4.23
2018-07-08T11:01:47.975Z,5.40
2018-07-08T11:04:16.487Z,3.80
2018-07-08T11:06:44.984Z,3.70
2018-07-08T11:09:13.459Z,4.27
2018-07-08T11:11:41.942Z,3.87
2018-07-08T11:14:10.433Z,3.63
2018-07-08T11:16:39.445Z,3.90
2018-07-08T11:19:08.942Z,3.20
2018-07-08T11:21:37.461Z,3.23
2018-07-08T11:24:07.164Z,4.67
2018-07-08T11:26:35.728Z,4.03
2018-07-08T11:29:05.059Z,3.40
2018-07-08T11:31:33.604Z,3.20
2018-07-08T11:34:02.104Z,4.07
2018-07-08T11:36:30.606Z,4.23
2018-07-08T11:38:59.128Z,3.60
2018-07-08T11:41:27.657Z,3.43
2018-07-08T11:43:56.856Z,2.97
2018-07-08T11:46:25.325Z,3.70
2018-07-08T11:48:53.829Z,3.07
2018-07-08T11:51:23.157Z,3.27
2018-07-08T11:53:52.663Z,2.67
2018-07-08T11:56:21.151Z,2.40
2018-07-08T11:58:49.884Z,3.30
2018-07-08T12:01:18.378Z,2.60
2018-07-08T12:03:46.889Z,3.57
2018-07-08T12:06:15.670Z,3.03
2018-07-08T12:08:44.235Z,3.50
2018-07-08T12:11:12.733Z,2.70
2018-07-08T12:13:41.420Z,2.60
2018-07-08T12:16:10.661Z,3.30
2018-07-08T12:18:39.151Z,2.50
2018-07-08T12:21:07.677Z,3.47
2018-07-08T12:23:42.684Z,3.50
2018-07-08T12:26:11.919Z,2.90
2018-07-08T12:28:40.707Z,2.43
2018-07-08T12:31:09.303Z,2.67
2018-07-08T12:33:37.817Z,2.63
2018-07-08T12:36:07.472Z,2.80
2018-07-08T12:38:36.072Z,3.13
2018-07-08T12:41:04.633Z,2.83
2018-07-08T12:43:33.259Z,3.53
2018-07-08T12:46:01.936Z,3.00
2018-07-08T12:48:30.485Z,2.80
2018-07-08T12:50:58.978Z,3.40
2018-07-08T12:53:27.780Z,2.97
2018-07-08T12:55:56.363Z,3.33
2018-07-08T12:58:24.887Z,2.83
2018-07-08T13:00:53.392Z,3.00
2018-07-08T13:03:22.051Z,2.40
2018-07-08T13:05:53.143Z,3.33
2018-07-08T13:08:21.734Z,3.33
2018-07-08T13:10:50.336Z,2.70
2018-07-08T13:13:18.876Z,3.17
2018-07-08T13:15:47.408Z,2.40
2018-07-08T13:18:16.661Z,2.43
2018-07-08T13:20:45.194Z,1.87
2018-07-08T13:23:13.643Z,2.03
2018-07-08T13:25:42.913Z,2.70
2018-07-08T13:28:11.524Z,2.63
2018-07-08T13:30:40.056Z,1.67
2018-07-08T13:33:08.610Z,2.40
2018-07-08T13:35:37.112Z,2.20
2018-07-08T13:38:05.770Z,2.53
2018-07-08T13:40:34.382Z,2.30
2018-07-08T13:43:02.874Z,1.87
2018-07-08T13:45:31.325Z,1.87
2018-07-08T13:47:59.865Z,1.67
2018-07-08T13:50:28.545Z,2.20
2018-07-08T13:52:57.302Z,2.53
2018-07-08T13:55:25.854Z,2.00
2018-07-08T13:57:54.341Z,1.67
2018-07-08T14:00:22.896Z,1.40
2018-07-08T14:02:51.495Z,1.63
2018-07-08T14:05:21.026Z,1.37
2018-07-08T14:07:49.599Z,1.10
2018-07-08T14:10:18.137Z,1.70
2018-07-08T14:12:46.655Z,1.57
2018-07-08T14:15:15.265Z,1.40
2018-07-08T14:17:43.817Z,1.47
2018-07-08T14:20:12.148Z,1.10
2018-07-08T14:22:40.633Z,1.40
2018-07-08T14:25:09.251Z,1.30
2018-07-08T14:27:37.774Z,0.90
2018-07-08T14:30:06.971Z,1.10
2018-07-08T14:32:35.535Z,1.00
2018-07-08T14:35:04.484Z,2.07
2018-07-08T14:37:33.147Z,1.20
2018-07-08T14:40:01.757Z,1.73
2018-07-08T14:42:30.404Z,1.13
2018-07-08T14:44:59.178Z,0.90
2018-07-08T14:47:27.712Z,0.93
2018-07-08T14:49:56.302Z,1.77
2018-07-08T14:52:24.907Z,0.73
2018-07-08T14:54:53.596Z,0.73
2018-07-08T14:57:22.170Z,1.13
2018-07-08T14:59:50.833Z,1.83
2018-07-08T15:02:19.428Z,0.73
2018-07-08T15:04:48.195Z,0.87
2018-07-08T15:07:16.833Z,0.80
2018-07-08T15:09:45.073Z,1.10
2018-07-08T15:12:13.687Z,1.70
2018-07-08T15:14:42.994Z,0.73
2018-07-08T15:17:11.595Z,1.50
2018-07-08T15:19:40.129Z,0.70
2018-07-08T15:22:09.004Z,0.80
2018-07-08T15:24:37.566Z,1.10
2018-07-08T15:27:06.204Z,0.97
2018-07-08T15:29:34.776Z,0.57
2018-07-08T15:32:03.579Z,0.87
2018-07-08T15:34:31.814Z,0.77
2018-07-08T15:37:00.641Z,0.77
2018-07-08T15:39:29.558Z,1.10
2018-07-08T15:41:58.108Z,1.20
2018-07-08T15:44:26.715Z,1.03
2018-07-08T15:46:55.788Z,0.90
2018-07-08T15:49:24.480Z,3.60
2018-07-08T15:51:53.152Z,2.30
2018-07-08T15:54:21.874Z,1.03
2018-07-08T15:56:50.804Z,0.50
2018-07-08T15:59:19.885Z,1.10
2018-07-08T16:01:49.328Z,0.80
2018-07-08T16:04:18.195Z,0.80
2018-07-08T16:06:46.744Z,1.50
2018-07-08T16:09:15.265Z,1.10
2018-07-08T16:11:44.551Z,0.73
2018-07-08T16:14:13.118Z,0.90
2018-07-08T16:16:41.807Z,0.90
2018-07-08T16:19:10.329Z,1.07
2018-07-08T16:21:38.895Z,1.23
2018-07-08T16:24:07.567Z,1.27
2018-07-08T16:26:36.580Z,1.30
2018-07-08T16:29:05.181Z,0.87
2018-07-08T16:31:33.788Z,1.03
2018-07-08T16:34:02.420Z,0.80
2018-07-08T16:36:31.028Z,1.10
2018-07-08T16:38:59.623Z,1.20
2018-07-08T16:41:28.182Z,1.23
2018-07-08T16:43:57.288Z,1.73
2018-07-08T16:46:25.859Z,1.00
2018-07-08T16:48:54.404Z,1.03
2018-07-08T16:51:22.733Z,1.20
2018-07-08T16:53:51.297Z,1.30
2018-07-08T16:56:20.064Z,0.97
2018-07-08T16:58:48.621Z,1.33
2018-07-08T17:01:17.434Z,0.80
2018-07-08T17:03:46.865Z,1.23
2018-07-08T17:06:15.504Z,0.97
2018-07-08T17:08:44.045Z,1.80
2018-07-08T17:11:12.616Z,1.63
2018-07-08T17:13:41.177Z,1.13
2018-07-08T17:16:09.720Z,1.43
2018-07-08T17:18:38.638Z,1.20
2018-07-08T17:21:07.197Z,1.57
2018-07-08T17:23:35.842Z,2.13
2018-07-08T17:26:04.449Z,1.50
2018-07-08T17:28:33.052Z,1.10
2018-07-08T17:31:01.771Z,1.50
2018-07-08T17:33:30.404Z,1.50
2018-07-08T17:35:58.978Z,1.23
2018-07-08T17:38:28.379Z,1.03
2018-07-08T17:40:57.050Z,1.40
2018-07-08T17:43:25.344Z,1.07
2018-07-08T17:45:53.939Z,1.50
2018-07-08T17:48:22.520Z,1.40
2018-07-08T17:50:51.095Z,2.20
2018-07-08T17:53:19.701Z,1.20
2018-07-08T17:55:48.885Z,1.00
2018-07-08T17:58:17.453Z,0.90
2018-07-08T18:00:46.175Z,1.10
2018-07-08T18:03:15.753Z,1.63
2018-07-08T18:05:44.299Z,2.13
2018-07-08T18:08:12.841Z,1.53
2018-07-08T18:10:41.408Z,1.17
2018-07-08T18:13:10.217Z,1.77
2018-07-08T18:15:39.557Z,0.97
2018-07-08T18:18:08.500Z,1.47
2018-07-08T18:20:37.395Z,1.07
2018-07-08T18:23:05.960Z,1.50
2018-07-08T18:25:34.534Z,1.47
2018-07-08T18:28:03.041Z,1.10
2018-07-08T18:30:33.400Z,1.10
2018-07-08T18:33:02.033Z,2.20
2018-07-08T18:35:30.628Z,1.10
2018-07-08T18:37:59.221Z,1.40
2018-07-08T18:40:27.803Z,1.50
2018-07-08T18:42:56.589Z,1.47
2018-07-08T18:45:25.110Z,1.00
2018-07-08T18:47:53.688Z,1.70
2018-07-08T18:50:22.206Z,1.53
2018-07-08T18:52:50.908Z,1.10
2018-07-08T18:55:19.528Z,1.03
2018-07-08T18:57:48.063Z,1.30
2018-07-08T19:00:16.656Z,1.17
2018-07-08T19:02:45.171Z,1.57
2018-07-08T19:05:13.692Z,1.90
2018-07-08T19:07:41.961Z,2.03
2018-07-08T19:10:10.641Z,1.17
2018-07-08T19:12:40.475Z,1.70
2018-07-08T19:15:09.376Z,2.00
2018-07-08T19:17:37.878Z,1.50
2018-07-08T19:20:06.584Z,1.90
2018-07-08T19:22:35.226Z,1.43
2018-07-08T19:25:03.881Z,2.10
2018-07-08T19:27:32.552Z,1.80
2018-07-08T19:30:01.208Z,2.57
2018-07-08T19:32:29.687Z,1.63
2018-07-08T19:34:59.313Z,1.60
2018-07-08T19:37:28.251Z,1.67
2018-07-08T19:39:56.876Z,1.57
2018-07-08T19:42:25.604Z,1.70
2018-07-08T19:44:55.659Z,1.50
2018-07-08T19:47:24.231Z,2.40
2018-07-08T19:49:52.818Z,2.00
2018-07-08T19:52:21.351Z,1.73
2018-07-08T19:54:49.989Z,1.43
2018-07-08T19:57:18.625Z,1.97
2018-07-08T19:59:47.778Z,1.87
2018-07-08T20:02:17.088Z,1.57
2018-07-08T20:04:46.164Z,2.00
2018-07-08T20:07:15.128Z,3.00
2018-07-08T20:09:44.333Z,2.00
2018-07-08T20:12:12.920Z,2.00
2018-07-08T20:14:41.565Z,1.83
2018-07-08T20:17:10.256Z,2.13
2018-07-08T20:19:38.860Z,1.77
2018-07-08T20:22:07.809Z,2.30
2018-07-08T20:24:36.106Z,1.50
2018-07-08T20:27:05.312Z,1.90
2018-07-08T20:29:34.182Z,2.50
2018-07-08T20:32:02.375Z,2.57
2018-07-08T20:34:31.799Z,2.37
2018-07-08T20:37:00.371Z,1.97
2018-07-08T20:39:29.740Z,2.10
2018-07-08T20:41:58.322Z,2.40
2018-07-08T20:44:26.881Z,2.40
2018-07-08T20:46:55.532Z,2.87
2018-07-08T20:49:24.739Z,2.07
2018-07-08T20:51:53.978Z,2.33
2018-07-08T20:54:22.576Z,2.40
2018-07-08T20:56:51.197Z,2.80
2018-07-08T20:59:19.816Z,2.60
2018-07-08T21:01:48.336Z,2.37
2018-07-08T21:04:17.718Z,2.80
2018-07-08T21:06:47.266Z,3.03
2018-07-08T21:09:15.969Z,2.63
2018-07-08T21:11:44.471Z,3.20
2018-07-08T21:14:13.030Z,2.33
2018-07-08T21:16:42.998Z,2.53
2018-07-08T21:19:11.506Z,3.33
2018-07-08T21:21:41.073Z,2.63
2018-07-08T21:24:09.622Z,2.47
2018-07-08T21:26:38.124Z,3.00
2018-07-08T21:29:06.799Z,3.37
2018-07-08T21:31:35.339Z,3.03
2018-07-08T21:34:03.907Z,3.00
2018-07-08T21:36:32.468Z,2.87
2018-07-08T21:39:01.080Z,2.53
2018-07-08T21:41:29.676Z,2.87
2018-07-08T21:43:58.225Z,2.47
2018-07-08T21:46:26.703Z,2.90
2018-07-08T21:48:55.270Z,4.70
2018-07-08T21:51:23.854Z,3.37
2018-07-08T21:53:53.617Z,4.17
2018-07-08T21:56:22.140Z,3.37
2018-07-08T21:58:50.779Z,3.03
2018-07-08T22:01:22.287Z,3.00
2018-07-08T22:03:51.414Z,4.23
2018-07-08T22:06:20.381Z,3.07
2018-07-08T22:08:48.897Z,4.73
2018-07-08T22:11:17.536Z,3.50
2018-07-08T22:13:46.038Z,4.37
2018-07-08T22:16:14.570Z,4.23
2018-07-08T22:18:43.151Z,3.33
2018-07-08T22:21:11.662Z,3.90
2018-07-08T22:23:40.196Z,3.27
2018-07-08T22:26:08.733Z,3.83
2018-07-08T22:28:37.210Z,4.13
2018-07-08T22:31:05.794Z,3.43
2018-07-08T22:33:34.324Z,3.13
2018-07-08T22:36:02.838Z,4.20
2018-07-08T22:38:31.359Z,3.90
2018-07-08T22:40:59.898Z,4.20
2018-07-08T22:43:28.396Z,4.20
2018-07-08T22:45:56.936Z,3.87
2018-07-08T22:48:25.478Z,4.40
2018-07-08T22:50:53.988Z,4.43
2018-07-08T22:53:22.499Z,4.30
2018-07-08T22:55:51.069Z,4.93
2018-07-08T22:58:19.573Z,4.60
2018-07-08T23:00:59.392Z,4.20
2018-07-08T23:03:54.727Z,4.50
2018-07-08T23:06:23.252Z,4.80
2018-07-08T23:08:52.346Z,4.27
2018-07-08T23:11:21.753Z,4.67
2018-07-08T23:13:51.204Z,4.40
2018-07-08T23:16:21.172Z,5.23
2018-07-08T23:18:49.792Z,4.70
2018-07-08T23:21:18.316Z,6.40
2018-07-08T23:23:46.860Z,6.00
2018-07-08T23:26:15.434Z,5.40
2018-07-08T23:28:43.925Z,6.30
2018-07-08T23:31:12.820Z,5.93
2018-07-08T23:33:41.289Z,6.40
2018-07-08T23:36:10.697Z,5.80
2018-07-08T23:38:40.020Z,6.50
2018-07-08T23:41:09.853Z,5.77
2018-07-08T23:43:38.383Z,6.20
2018-07-08T23:46:06.903Z,6.13
2018-07-08T23:48:35.765Z,6.90
2018-07-08T23:51:04.296Z,6.23
2018-07-08T23:53:32.840Z,6.70
2018-07-08T23:56:01.326Z,7.80
2018-07-08T23:58:31.259Z,7.90
